sensor_id;sensor_type;location;lat;lon;timestamp;temperature;humidity
16158;DHT22;8184;60.256;18.694;2023-09-12T00:01:03;16.30;99.90
16158;DHT22;8184;60.256;18.694;2023-09-12T00:03:33;16.30;99.90
16158;DHT22;8184;60.256;18.694;2023-09-12T00:06:02;16.30;99.90
16158;DHT22;8184;60.256;18.694;2023-09-12T00:08:32;16.30;99.90
16158;DHT22;8184;60.256;18.694;2023-09-12T00:11:02;16.30;99.90
16158;DHT22;8184;60.256;18.694;2023-09-12T00:13:31;16.30;99.90
16158;DHT22;8184;60.256;18.694;2023-09-12T00:16:00;16.10;99.90
16158;DHT22;8184;60.256;18.694;2023-09-12T00:18:28;16.10;99.90
16158;DHT22;8184;60.256;18.694;2023-09-12T00:21:01;16.20;99.90
16158;DHT22;8184;60.256;18.694;2023-09-12T00:23:31;16.20;99.90
16158;DHT22;8184;60.256;18.694;2023-09-12T00:26:00;16.10;99.90
16158;DHT22;8184;60.256;18.694;2023-09-12T00:28:29;16.20;99.90
16158;DHT22;8184;60.256;18.694;2023-09-12T00:30:57;16.20;99.90
16158;DHT22;8184;60.256;18.694;2023-09-12T00:33:25;16.20;99.90
16158;DHT22;8184;60.256;18.694;2023-09-12T00:35:54;16.20;99.90
16158;DHT22;8184;60.256;18.694;2023-09-12T00:38:22;16.20;99.90
16158;DHT22;8184;60.256;18.694;2023-09-12T00:40:50;16.20;99.90
16158;DHT22;8184;60.256;18.694;2023-09-12T00:43:20;16.10;99.90
16158;DHT22;8184;60.256;18.694;2023-09-12T00:45:48;16.00;99.90
16158;DHT22;8184;60.256;18.694;2023-09-12T00:48:18;15.90;99.90
16158;DHT22;8184;60.256;18.694;2023-09-12T00:50:47;16.00;99.90
16158;DHT22;8184;60.256;18.694;2023-09-12T00:53:17;15.90;99.90
16158;DHT22;8184;60.256;18.694;2023-09-12T00:55:48;15.90;99.90
16158;DHT22;8184;60.256;18.694;2023-09-12T00:58:19;15.90;99.90
16158;DHT22;8184;60.256;18.694;2023-09-12T01:00:48;15.80;99.90
16158;DHT22;8184;60.256;18.694;2023-09-12T01:03:16;15.90;99.90
16158;DHT22;8184;60.256;18.694;2023-09-12T01:05:44;15.80;99.90
16158;DHT22;8184;60.256;18.694;2023-09-12T01:08:14;15.80;99.90
16158;DHT22;8184;60.256;18.694;2023-09-12T01:10:42;15.70;99.90
16158;DHT22;8184;60.256;18.694;2023-09-12T01:13:12;15.70;99.90
16158;DHT22;8184;60.256;18.694;2023-09-12T01:15:43;15.70;99.90
16158;DHT22;8184;60.256;18.694;2023-09-12T01:18:11;15.70;99.90
16158;DHT22;8184;60.256;18.694;2023-09-12T01:20:41;15.70;99.90
16158;DHT22;8184;60.256;18.694;2023-09-12T01:23:21;15.70;99.90
16158;DHT22;8184;60.256;18.694;2023-09-12T01:26:00;15.70;99.90
16158;DHT22;8184;60.256;18.694;2023-09-12T01:28:31;15.70;99.90
16158;DHT22;8184;60.256;18.694;2023-09-12T01:31:02;15.80;99.90
16158;DHT22;8184;60.256;18.694;2023-09-12T01:33:30;15.80;99.90
16158;DHT22;8184;60.256;18.694;2023-09-12T01:35:59;15.70;99.90
16158;DHT22;8184;60.256;18.694;2023-09-12T01:38:29;15.80;99.90
16158;DHT22;8184;60.256;18.694;2023-09-12T01:40:58;15.70;99.90
16158;DHT22;8184;60.256;18.694;2023-09-12T01:43:27;15.70;99.90
16158;DHT22;8184;60.256;18.694;2023-09-12T01:45:58;15.70;99.90
16158;DHT22;8184;60.256;18.694;2023-09-12T01:48:27;15.60;99.90
16158;DHT22;8184;60.256;18.694;2023-09-12T01:51:00;15.60;99.90
16158;DHT22;8184;60.256;18.694;2023-09-12T01:53:28;15.70;99.90
16158;DHT22;8184;60.256;18.694;2023-09-12T01:55:56;15.60;99.90
16158;DHT22;8184;60.256;18.694;2023-09-12T01:58:25;15.60;99.90
16158;DHT22;8184;60.256;18.694;2023-09-12T02:00:54;15.50;99.90
16158;DHT22;8184;60.256;18.694;2023-09-12T02:03:26;15.60;99.90
16158;DHT22;8184;60.256;18.694;2023-09-12T02:05:54;15.60;99.90
16158;DHT22;8184;60.256;18.694;2023-09-12T02:08:23;15.50;99.90
16158;DHT22;8184;60.256;18.694;2023-09-12T02:10:52;15.60;99.90
16158;DHT22;8184;60.256;18.694;2023-09-12T02:13:20;15.60;99.90
16158;DHT22;8184;60.256;18.694;2023-09-12T02:15:48;15.60;99.90
16158;DHT22;8184;60.256;18.694;2023-09-12T02:18:17;15.50;99.90
16158;DHT22;8184;60.256;18.694;2023-09-12T02:20:47;15.50;99.90
16158;DHT22;8184;60.256;18.694;2023-09-12T02:23:15;15.50;99.90
16158;DHT22;8184;60.256;18.694;2023-09-12T02:25:46;15.60;99.90
16158;DHT22;8184;60.256;18.694;2023-09-12T02:28:14;15.50;99.90
16158;DHT22;8184;60.256;18.694;2023-09-12T02:30:42;15.60;99.90
16158;DHT22;8184;60.256;18.694;2023-09-12T02:33:11;15.50;99.90
16158;DHT22;8184;60.256;18.694;2023-09-12T02:35:39;15.50;99.90
16158;DHT22;8184;60.256;18.694;2023-09-12T02:38:09;15.50;99.90
16158;DHT22;8184;60.256;18.694;2023-09-12T02:40:37;15.50;99.90
16158;DHT22;8184;60.256;18.694;2023-09-12T02:43:06;15.40;99.90
16158;DHT22;8184;60.256;18.694;2023-09-12T02:45:34;15.50;99.90
16158;DHT22;8184;60.256;18.694;2023-09-12T02:48:03;15.50;99.90
16158;DHT22;8184;60.256;18.694;2023-09-12T02:50:31;15.50;99.90
16158;DHT22;8184;60.256;18.694;2023-09-12T02:52:59;15.60;99.90
16158;DHT22;8184;60.256;18.694;2023-09-12T02:55:29;15.60;99.90
16158;DHT22;8184;60.256;18.694;2023-09-12T02:57:57;15.60;99.90
16158;DHT22;8184;60.256;18.694;2023-09-12T03:00:26;15.60;99.90
16158;DHT22;8184;60.256;18.694;2023-09-12T03:02:54;15.70;99.90
16158;DHT22;8184;60.256;18.694;2023-09-12T03:05:22;15.60;99.90
16158;DHT22;8184;60.256;18.694;2023-09-12T03:07:51;15.60;99.90
16158;DHT22;8184;60.256;18.694;2023-09-12T03:10:19;15.50;99.90
16158;DHT22;8184;60.256;18.694;2023-09-12T03:12:48;15.40;99.90
16158;DHT22;8184;60.256;18.694;2023-09-12T03:15:17;15.40;99.90
16158;DHT22;8184;60.256;18.694;2023-09-12T03:17:45;15.40;99.90
16158;DHT22;8184;60.256;18.694;2023-09-12T03:20:13;15.40;99.90
16158;DHT22;8184;60.256;18.694;2023-09-12T03:22:42;15.30;99.90
16158;DHT22;8184;60.256;18.694;2023-09-12T03:25:12;15.40;99.90
16158;DHT22;8184;60.256;18.694;2023-09-12T03:27:40;15.50;99.90
16158;DHT22;8184;60.256;18.694;2023-09-12T03:30:10;15.40;99.90
16158;DHT22;8184;60.256;18.694;2023-09-12T03:32:39;15.40;99.90
16158;DHT22;8184;60.256;18.694;2023-09-12T03:35:07;15.50;99.90
16158;DHT22;8184;60.256;18.694;2023-09-12T03:37:36;15.50;99.90
16158;DHT22;8184;60.256;18.694;2023-09-12T03:40:07;15.40;99.90
16158;DHT22;8184;60.256;18.694;2023-09-12T03:42:36;15.40;99.90
16158;DHT22;8184;60.256;18.694;2023-09-12T03:45:10;15.50;99.90
16158;DHT22;8184;60.256;18.694;2023-09-12T03:47:39;15.50;99.90
16158;DHT22;8184;60.256;18.694;2023-09-12T03:50:08;15.40;99.90
16158;DHT22;8184;60.256;18.694;2023-09-12T03:52:39;15.40;99.90
16158;DHT22;8184;60.256;18.694;2023-09-12T03:55:07;15.40;99.90
16158;DHT22;8184;60.256;18.694;2023-09-12T03:57:36;15.30;99.90
16158;DHT22;8184;60.256;18.694;2023-09-12T04:00:05;15.30;99.90
16158;DHT22;8184;60.256;18.694;2023-09-12T04:02:36;15.30;99.90
16158;DHT22;8184;60.256;18.694;2023-09-12T04:05:05;15.30;99.90
16158;DHT22;8184;60.256;18.694;2023-09-12T04:07:33;15.30;99.90
16158;DHT22;8184;60.256;18.694;2023-09-12T04:10:01;15.40;99.90
16158;DHT22;8184;60.256;18.694;2023-09-12T04:12:30;15.40;99.90
16158;DHT22;8184;60.256;18.694;2023-09-12T04:14:58;15.40;99.90
16158;DHT22;8184;60.256;18.694;2023-09-12T04:17:27;15.40;99.90
16158;DHT22;8184;60.256;18.694;2023-09-12T04:19:56;15.50;99.90
16158;DHT22;8184;60.256;18.694;2023-09-12T04:22:25;15.40;99.90
16158;DHT22;8184;60.256;18.694;2023-09-12T04:24:53;15.40;99.90
16158;DHT22;8184;60.256;18.694;2023-09-12T04:27:21;15.50;99.90
16158;DHT22;8184;60.256;18.694;2023-09-12T04:29:49;15.60;99.90
16158;DHT22;8184;60.256;18.694;2023-09-12T04:32:18;15.50;99.90
16158;DHT22;8184;60.256;18.694;2023-09-12T04:34:50;15.60;99.90
16158;DHT22;8184;60.256;18.694;2023-09-12T04:37:20;15.50;99.90
16158;DHT22;8184;60.256;18.694;2023-09-12T04:39:48;15.50;99.90
16158;DHT22;8184;60.256;18.694;2023-09-12T04:42:17;15.50;99.90
16158;DHT22;8184;60.256;18.694;2023-09-12T04:44:45;15.50;99.90
16158;DHT22;8184;60.256;18.694;2023-09-12T04:47:13;15.60;99.90
16158;DHT22;8184;60.256;18.694;2023-09-12T04:49:43;15.60;99.90
16158;DHT22;8184;60.256;18.694;2023-09-12T04:52:12;15.60;99.90
16158;DHT22;8184;60.256;18.694;2023-09-12T04:54:41;15.60;99.90
16158;DHT22;8184;60.256;18.694;2023-09-12T04:57:09;15.70;99.90
16158;DHT22;8184;60.256;18.694;2023-09-12T04:59:38;15.60;99.90
16158;DHT22;8184;60.256;18.694;2023-09-12T05:02:07;15.70;99.90
16158;DHT22;8184;60.256;18.694;2023-09-12T05:04:35;15.60;99.90
16158;DHT22;8184;60.256;18.694;2023-09-12T05:07:04;15.60;99.90
16158;DHT22;8184;60.256;18.694;2023-09-12T05:09:32;15.70;99.90
16158;DHT22;8184;60.256;18.694;2023-09-12T05:12:05;15.60;99.90
16158;DHT22;8184;60.256;18.694;2023-09-12T05:14:34;15.70;99.90
16158;DHT22;8184;60.256;18.694;2023-09-12T05:17:02;15.80;99.90
16158;DHT22;8184;60.256;18.694;2023-09-12T05:19:30;15.80;99.90
16158;DHT22;8184;60.256;18.694;2023-09-12T05:21:59;15.80;99.90
16158;DHT22;8184;60.256;18.694;2023-09-12T05:24:27;15.80;99.90
16158;DHT22;8184;60.256;18.694;2023-09-12T05:26:56;15.80;99.90
16158;DHT22;8184;60.256;18.694;2023-09-12T05:29:25;15.90;99.90
16158;DHT22;8184;60.256;18.694;2023-09-12T05:31:54;15.80;99.90
16158;DHT22;8184;60.256;18.694;2023-09-12T05:34:22;15.80;99.90
16158;DHT22;8184;60.256;18.694;2023-09-12T05:36:50;15.90;99.90
16158;DHT22;8184;60.256;18.694;2023-09-12T05:39:19;15.90;99.90
16158;DHT22;8184;60.256;18.694;2023-09-12T05:41:55;15.90;99.90
16158;DHT22;8184;60.256;18.694;2023-09-12T05:44:23;15.90;99.90
16158;DHT22;8184;60.256;18.694;2023-09-12T05:46:53;15.90;99.90
16158;DHT22;8184;60.256;18.694;2023-09-12T05:49:21;15.90;99.90
16158;DHT22;8184;60.256;18.694;2023-09-12T05:51:59;16.00;99.90
16158;DHT22;8184;60.256;18.694;2023-09-12T05:54:27;16.00;99.90
16158;DHT22;8184;60.256;18.694;2023-09-12T05:56:55;16.00;99.90
16158;DHT22;8184;60.256;18.694;2023-09-12T05:59:25;16.10;99.90
16158;DHT22;8184;60.256;18.694;2023-09-12T06:01:55;16.10;99.90
16158;DHT22;8184;60.256;18.694;2023-09-12T06:04:23;16.10;99.90
16158;DHT22;8184;60.256;18.694;2023-09-12T06:06:51;16.20;99.90
16158;DHT22;8184;60.256;18.694;2023-09-12T06:09:20;16.20;99.90
16158;DHT22;8184;60.256;18.694;2023-09-12T06:11:48;16.20;99.90
16158;DHT22;8184;60.256;18.694;2023-09-12T06:14:17;16.30;99.90
16158;DHT22;8184;60.256;18.694;2023-09-12T06:16:45;16.30;99.90
16158;DHT22;8184;60.256;18.694;2023-09-12T06:19:15;16.40;99.90
16158;DHT22;8184;60.256;18.694;2023-09-12T06:21:44;16.40;99.90
16158;DHT22;8184;60.256;18.694;2023-09-12T06:24:13;16.40;99.90
16158;DHT22;8184;60.256;18.694;2023-09-12T06:26:42;16.40;99.90
16158;DHT22;8184;60.256;18.694;2023-09-12T06:29:10;16.50;99.90
16158;DHT22;8184;60.256;18.694;2023-09-12T06:31:38;16.50;99.90
16158;DHT22;8184;60.256;18.694;2023-09-12T06:34:08;16.50;99.90
16158;DHT22;8184;60.256;18.694;2023-09-12T06:36:38;16.50;99.90
16158;DHT22;8184;60.256;18.694;2023-09-12T06:39:08;16.50;99.90
16158;DHT22;8184;60.256;18.694;2023-09-12T06:41:36;16.50;99.90
16158;DHT22;8184;60.256;18.694;2023-09-12T06:44:05;16.50;99.90
16158;DHT22;8184;60.256;18.694;2023-09-12T06:46:35;16.60;99.90
16158;DHT22;8184;60.256;18.694;2023-09-12T06:49:04;16.60;99.90
16158;DHT22;8184;60.256;18.694;2023-09-12T06:51:33;16.70;99.90
16158;DHT22;8184;60.256;18.694;2023-09-12T06:54:06;16.70;99.90
16158;DHT22;8184;60.256;18.694;2023-09-12T06:56:34;16.70;99.90
16158;DHT22;8184;60.256;18.694;2023-09-12T06:59:04;16.70;99.90
16158;DHT22;8184;60.256;18.694;2023-09-12T07:01:33;16.70;99.90
16158;DHT22;8184;60.256;18.694;2023-09-12T07:04:02;16.70;99.90
16158;DHT22;8184;60.256;18.694;2023-09-12T07:06:30;16.80;99.90
16158;DHT22;8184;60.256;18.694;2023-09-12T07:08:59;16.90;99.90
16158;DHT22;8184;60.256;18.694;2023-09-12T07:11:30;16.90;99.90
16158;DHT22;8184;60.256;18.694;2023-09-12T07:13:59;17.00;99.90
16158;DHT22;8184;60.256;18.694;2023-09-12T07:16:27;17.10;99.90
16158;DHT22;8184;60.256;18.694;2023-09-12T07:18:55;17.20;99.90
16158;DHT22;8184;60.256;18.694;2023-09-12T07:21:24;17.20;99.90
16158;DHT22;8184;60.256;18.694;2023-09-12T07:23:53;17.30;99.90
16158;DHT22;8184;60.256;18.694;2023-09-12T07:26:21;17.30;99.90
16158;DHT22;8184;60.256;18.694;2023-09-12T07:28:55;17.30;99.90
16158;DHT22;8184;60.256;18.694;2023-09-12T07:31:23;17.30;99.90
16158;DHT22;8184;60.256;18.694;2023-09-12T07:33:51;17.50;99.90
16158;DHT22;8184;60.256;18.694;2023-09-12T07:36:20;17.60;99.90
16158;DHT22;8184;60.256;18.694;2023-09-12T07:38:48;17.70;99.90
16158;DHT22;8184;60.256;18.694;2023-09-12T07:41:17;17.80;99.90
16158;DHT22;8184;60.256;18.694;2023-09-12T07:43:46;17.80;99.90
16158;DHT22;8184;60.256;18.694;2023-09-12T07:46:15;17.70;99.90
16158;DHT22;8184;60.256;18.694;2023-09-12T07:48:44;17.70;99.90
16158;DHT22;8184;60.256;18.694;2023-09-12T07:51:12;17.70;99.90
16158;DHT22;8184;60.256;18.694;2023-09-12T07:53:41;17.70;99.90
16158;DHT22;8184;60.256;18.694;2023-09-12T07:56:13;17.70;99.90
16158;DHT22;8184;60.256;18.694;2023-09-12T07:58:41;17.80;99.90
16158;DHT22;8184;60.256;18.694;2023-09-12T08:01:09;17.80;99.90
16158;DHT22;8184;60.256;18.694;2023-09-12T08:03:39;17.80;99.90
16158;DHT22;8184;60.256;18.694;2023-09-12T08:06:08;17.90;99.90
16158;DHT22;8184;60.256;18.694;2023-09-12T08:08:37;18.00;99.90
16158;DHT22;8184;60.256;18.694;2023-09-12T08:11:05;18.00;99.90
16158;DHT22;8184;60.256;18.694;2023-09-12T08:13:33;18.20;99.90
16158;DHT22;8184;60.256;18.694;2023-09-12T08:16:01;18.30;99.90
16158;DHT22;8184;60.256;18.694;2023-09-12T08:18:30;18.40;99.90
16158;DHT22;8184;60.256;18.694;2023-09-12T08:21:00;18.60;99.90
16158;DHT22;8184;60.256;18.694;2023-09-12T08:23:29;18.70;99.90
16158;DHT22;8184;60.256;18.694;2023-09-12T08:25:57;18.70;99.90
16158;DHT22;8184;60.256;18.694;2023-09-12T08:28:25;18.60;99.90
16158;DHT22;8184;60.256;18.694;2023-09-12T08:30:54;18.60;99.90
16158;DHT22;8184;60.256;18.694;2023-09-12T08:33:22;18.80;99.90
16158;DHT22;8184;60.256;18.694;2023-09-12T08:35:52;19.00;99.90
16158;DHT22;8184;60.256;18.694;2023-09-12T08:38:22;19.00;99.90
16158;DHT22;8184;60.256;18.694;2023-09-12T08:40:50;19.10;99.90
16158;DHT22;8184;60.256;18.694;2023-09-12T08:43:19;19.30;99.90
16158;DHT22;8184;60.256;18.694;2023-09-12T08:45:47;19.50;99.90
16158;DHT22;8184;60.256;18.694;2023-09-12T08:48:16;19.60;99.90
16158;DHT22;8184;60.256;18.694;2023-09-12T08:50:50;19.70;99.90
16158;DHT22;8184;60.256;18.694;2023-09-12T08:53:23;19.70;99.90
16158;DHT22;8184;60.256;18.694;2023-09-12T08:55:51;19.60;99.90
16158;DHT22;8184;60.256;18.694;2023-09-12T08:58:22;19.60;99.90
16158;DHT22;8184;60.256;18.694;2023-09-12T09:00:51;19.70;99.90
16158;DHT22;8184;60.256;18.694;2023-09-12T09:03:20;19.70;99.90
16158;DHT22;8184;60.256;18.694;2023-09-12T09:05:50;19.70;99.90
16158;DHT22;8184;60.256;18.694;2023-09-12T09:08:19;19.90;99.90
16158;DHT22;8184;60.256;18.694;2023-09-12T09:10:55;20.00;99.90
16158;DHT22;8184;60.256;18.694;2023-09-12T09:13:24;20.20;99.90
16158;DHT22;8184;60.256;18.694;2023-09-12T09:16:10;20.10;99.90
16158;DHT22;8184;60.256;18.694;2023-09-12T09:18:54;20.00;99.90
16158;DHT22;8184;60.256;18.694;2023-09-12T09:21:25;19.90;99.90
16158;DHT22;8184;60.256;18.694;2023-09-12T09:23:54;19.70;99.90
16158;DHT22;8184;60.256;18.694;2023-09-12T09:26:24;20.00;99.90
16158;DHT22;8184;60.256;18.694;2023-09-12T09:29:02;20.20;99.90
16158;DHT22;8184;60.256;18.694;2023-09-12T09:31:31;20.40;99.90
16158;DHT22;8184;60.256;18.694;2023-09-12T09:34:01;20.60;99.90
16158;DHT22;8184;60.256;18.694;2023-09-12T09:36:31;20.60;99.90
16158;DHT22;8184;60.256;18.694;2023-09-12T09:39:02;20.70;99.90
16158;DHT22;8184;60.256;18.694;2023-09-12T09:41:33;20.90;99.90
16158;DHT22;8184;60.256;18.694;2023-09-12T09:44:01;21.10;99.90
16158;DHT22;8184;60.256;18.694;2023-09-12T09:46:31;21.10;99.90
16158;DHT22;8184;60.256;18.694;2023-09-12T09:48:59;21.00;99.90
16158;DHT22;8184;60.256;18.694;2023-09-12T09:51:29;20.90;99.90
16158;DHT22;8184;60.256;18.694;2023-09-12T09:53:58;20.80;99.90
16158;DHT22;8184;60.256;18.694;2023-09-12T09:56:27;20.80;99.90
16158;DHT22;8184;60.256;18.694;2023-09-12T09:58:58;20.80;99.90
16158;DHT22;8184;60.256;18.694;2023-09-12T10:01:27;20.90;99.90
16158;DHT22;8184;60.256;18.694;2023-09-12T10:03:57;21.10;99.90
16158;DHT22;8184;60.256;18.694;2023-09-12T10:06:26;21.20;99.90
16158;DHT22;8184;60.256;18.694;2023-09-12T10:08:55;21.30;99.90
16158;DHT22;8184;60.256;18.694;2023-09-12T10:11:24;21.40;99.90
16158;DHT22;8184;60.256;18.694;2023-09-12T10:13:53;21.50;99.90
16158;DHT22;8184;60.256;18.694;2023-09-12T10:16:24;21.60;99.90
16158;DHT22;8184;60.256;18.694;2023-09-12T10:18:56;21.70;99.90
16158;DHT22;8184;60.256;18.694;2023-09-12T10:21:28;21.40;99.90
16158;DHT22;8184;60.256;18.694;2023-09-12T10:23:58;21.50;99.90
16158;DHT22;8184;60.256;18.694;2023-09-12T10:26:26;21.50;99.90
16158;DHT22;8184;60.256;18.694;2023-09-12T10:28:55;21.80;99.90
16158;DHT22;8184;60.256;18.694;2023-09-12T10:31:25;22.10;99.90
16158;DHT22;8184;60.256;18.694;2023-09-12T10:33:54;22.40;99.90
16158;DHT22;8184;60.256;18.694;2023-09-12T10:36:23;22.40;99.90
16158;DHT22;8184;60.256;18.694;2023-09-12T10:38:54;22.40;99.90
16158;DHT22;8184;60.256;18.694;2023-09-12T10:41:23;22.50;99.90
16158;DHT22;8184;60.256;18.694;2023-09-12T10:43:51;22.50;99.90
16158;DHT22;8184;60.256;18.694;2023-09-12T10:46:20;22.50;99.90
16158;DHT22;8184;60.256;18.694;2023-09-12T10:48:54;22.40;99.90
16158;DHT22;8184;60.256;18.694;2023-09-12T10:51:25;22.70;99.90
16158;DHT22;8184;60.256;18.694;2023-09-12T10:53:54;22.70;99.90
16158;DHT22;8184;60.256;18.694;2023-09-12T10:56:23;22.60;99.90
16158;DHT22;8184;60.256;18.694;2023-09-12T10:59:14;22.50;99.90
16158;DHT22;8184;60.256;18.694;2023-09-12T11:01:42;22.60;99.90
16158;DHT22;8184;60.256;18.694;2023-09-12T11:04:34;22.50;99.90
16158;DHT22;8184;60.256;18.694;2023-09-12T11:12:34;23.00;99.90
16158;DHT22;8184;60.256;18.694;2023-09-12T11:15:04;23.30;99.90
16158;DHT22;8184;60.256;18.694;2023-09-12T11:17:37;23.20;99.90
16158;DHT22;8184;60.256;18.694;2023-09-12T11:20:07;23.40;99.90
16158;DHT22;8184;60.256;18.694;2023-09-12T11:22:39;23.30;99.90
16158;DHT22;8184;60.256;18.694;2023-09-12T11:25:21;23.70;99.90
16158;DHT22;8184;60.256;18.694;2023-09-12T11:30:38;23.70;99.90
16158;DHT22;8184;60.256;18.694;2023-09-12T11:33:23;23.70;99.90
16158;DHT22;8184;60.256;18.694;2023-09-12T11:35:53;23.50;99.90
16158;DHT22;8184;60.256;18.694;2023-09-12T11:38:28;23.60;99.90
16158;DHT22;8184;60.256;18.694;2023-09-12T11:40:57;23.70;99.90
16158;DHT22;8184;60.256;18.694;2023-09-12T11:43:26;23.50;99.90
16158;DHT22;8184;60.256;18.694;2023-09-12T11:45:55;23.50;99.90
16158;DHT22;8184;60.256;18.694;2023-09-12T11:48:24;23.50;99.90
16158;DHT22;8184;60.256;18.694;2023-09-12T11:50:54;23.50;99.90
16158;DHT22;8184;60.256;18.694;2023-09-12T11:53:23;23.20;99.90
16158;DHT22;8184;60.256;18.694;2023-09-12T11:55:54;23.20;99.90
16158;DHT22;8184;60.256;18.694;2023-09-12T11:58:24;23.20;99.90
16158;DHT22;8184;60.256;18.694;2023-09-12T12:00:57;23.00;99.90
16158;DHT22;8184;60.256;18.694;2023-09-12T12:03:26;23.00;99.90
16158;DHT22;8184;60.256;18.694;2023-09-12T12:05:57;23.10;99.90
16158;DHT22;8184;60.256;18.694;2023-09-12T12:08:25;23.20;99.90
16158;DHT22;8184;60.256;18.694;2023-09-12T12:10:58;23.40;99.90
16158;DHT22;8184;60.256;18.694;2023-09-12T12:13:26;23.20;99.90
16158;DHT22;8184;60.256;18.694;2023-09-12T12:15:56;23.30;99.90
16158;DHT22;8184;60.256;18.694;2023-09-12T12:18:25;23.30;99.90
16158;DHT22;8184;60.256;18.694;2023-09-12T12:20:54;23.30;99.90
16158;DHT22;8184;60.256;18.694;2023-09-12T12:23:23;23.30;99.90
16158;DHT22;8184;60.256;18.694;2023-09-12T12:25:52;23.30;99.90
16158;DHT22;8184;60.256;18.694;2023-09-12T12:28:21;23.30;99.90
16158;DHT22;8184;60.256;18.694;2023-09-12T12:30:50;23.20;99.90
16158;DHT22;8184;60.256;18.694;2023-09-12T12:33:20;22.90;99.90
16158;DHT22;8184;60.256;18.694;2023-09-12T12:36:09;22.60;99.90
16158;DHT22;8184;60.256;18.694;2023-09-12T12:38:39;22.30;99.90
16158;DHT22;8184;60.256;18.694;2023-09-12T12:41:24;22.40;99.90
16158;DHT22;8184;60.256;18.694;2023-09-12T12:43:59;22.30;99.90
16158;DHT22;8184;60.256;18.694;2023-09-12T12:46:33;22.40;99.90
16158;DHT22;8184;60.256;18.694;2023-09-12T12:49:02;22.60;99.90
16158;DHT22;8184;60.256;18.694;2023-09-12T12:51:33;22.70;99.90
16158;DHT22;8184;60.256;18.694;2023-09-12T12:54:05;22.50;99.90
16158;DHT22;8184;60.256;18.694;2023-09-12T12:56:34;22.30;99.90
16158;DHT22;8184;60.256;18.694;2023-09-12T12:59:03;22.50;99.90
16158;DHT22;8184;60.256;18.694;2023-09-12T13:01:33;22.40;99.90
16158;DHT22;8184;60.256;18.694;2023-09-12T13:04:04;22.50;99.90
16158;DHT22;8184;60.256;18.694;2023-09-12T13:06:32;22.50;99.90
16158;DHT22;8184;60.256;18.694;2023-09-12T13:09:03;22.70;99.90
16158;DHT22;8184;60.256;18.694;2023-09-12T13:11:37;22.50;99.90
16158;DHT22;8184;60.256;18.694;2023-09-12T13:14:07;22.40;99.90
16158;DHT22;8184;60.256;18.694;2023-09-12T13:16:38;22.40;99.90
16158;DHT22;8184;60.256;18.694;2023-09-12T13:19:09;22.80;99.90
16158;DHT22;8184;60.256;18.694;2023-09-12T13:21:38;22.80;99.90
16158;DHT22;8184;60.256;18.694;2023-09-12T13:24:06;22.90;99.90
16158;DHT22;8184;60.256;18.694;2023-09-12T13:26:35;22.50;99.90
16158;DHT22;8184;60.256;18.694;2023-09-12T13:29:05;22.40;99.90
16158;DHT22;8184;60.256;18.694;2023-09-12T13:31:35;22.40;99.90
16158;DHT22;8184;60.256;18.694;2023-09-12T13:34:03;22.30;99.90
16158;DHT22;8184;60.256;18.694;2023-09-12T13:36:32;22.50;99.90
16158;DHT22;8184;60.256;18.694;2023-09-12T13:39:00;22.70;99.90
16158;DHT22;8184;60.256;18.694;2023-09-12T13:41:29;22.50;99.90
16158;DHT22;8184;60.256;18.694;2023-09-12T13:43:57;22.50;99.90
16158;DHT22;8184;60.256;18.694;2023-09-12T13:46:27;22.60;99.90
16158;DHT22;8184;60.256;18.694;2023-09-12T13:48:57;22.60;99.90
16158;DHT22;8184;60.256;18.694;2023-09-12T13:51:29;22.30;99.90
16158;DHT22;8184;60.256;18.694;2023-09-12T13:53:57;22.20;99.90
16158;DHT22;8184;60.256;18.694;2023-09-12T13:56:26;22.00;99.90
16158;DHT22;8184;60.256;18.694;2023-09-12T13:58:57;22.20;99.90
16158;DHT22;8184;60.256;18.694;2023-09-12T14:01:28;22.20;99.90
16158;DHT22;8184;60.256;18.694;2023-09-12T14:04:01;22.20;99.90
16158;DHT22;8184;60.256;18.694;2023-09-12T14:06:32;22.30;99.90
16158;DHT22;8184;60.256;18.694;2023-09-12T14:09:01;22.30;99.90
16158;DHT22;8184;60.256;18.694;2023-09-12T14:11:30;22.00;99.90
16158;DHT22;8184;60.256;18.694;2023-09-12T14:14:05;22.30;99.90
16158;DHT22;8184;60.256;18.694;2023-09-12T14:16:44;22.30;99.90
16158;DHT22;8184;60.256;18.694;2023-09-12T14:19:21;22.00;99.90
16158;DHT22;8184;60.256;18.694;2023-09-12T14:21:50;22.00;99.90
16158;DHT22;8184;60.256;18.694;2023-09-12T14:24:20;21.80;99.90
16158;DHT22;8184;60.256;18.694;2023-09-12T14:26:48;21.90;99.90
16158;DHT22;8184;60.256;18.694;2023-09-12T14:29:20;21.90;99.90
16158;DHT22;8184;60.256;18.694;2023-09-12T14:31:50;21.90;99.90
16158;DHT22;8184;60.256;18.694;2023-09-12T14:34:24;21.90;99.90
16158;DHT22;8184;60.256;18.694;2023-09-12T14:36:54;21.90;99.90
16158;DHT22;8184;60.256;18.694;2023-09-12T14:39:23;21.80;99.90
16158;DHT22;8184;60.256;18.694;2023-09-12T14:41:51;22.00;99.90
16158;DHT22;8184;60.256;18.694;2023-09-12T14:44:21;22.10;99.90
16158;DHT22;8184;60.256;18.694;2023-09-12T14:46:53;22.20;99.90
16158;DHT22;8184;60.256;18.694;2023-09-12T14:49:21;22.10;99.90
16158;DHT22;8184;60.256;18.694;2023-09-12T14:51:49;22.10;99.90
16158;DHT22;8184;60.256;18.694;2023-09-12T14:54:18;22.00;99.90
16158;DHT22;8184;60.256;18.694;2023-09-12T14:56:46;22.00;99.90
16158;DHT22;8184;60.256;18.694;2023-09-12T14:59:14;22.20;99.90
16158;DHT22;8184;60.256;18.694;2023-09-12T15:01:43;22.20;99.90
16158;DHT22;8184;60.256;18.694;2023-09-12T15:04:13;22.10;99.90
16158;DHT22;8184;60.256;18.694;2023-09-12T15:06:41;21.80;99.90
16158;DHT22;8184;60.256;18.694;2023-09-12T15:09:11;21.70;99.90
16158;DHT22;8184;60.256;18.694;2023-09-12T15:11:39;21.60;99.90
16158;DHT22;8184;60.256;18.694;2023-09-12T15:14:07;21.70;99.90
16158;DHT22;8184;60.256;18.694;2023-09-12T15:16:35;21.80;99.90
16158;DHT22;8184;60.256;18.694;2023-09-12T15:19:04;21.70;99.90
16158;DHT22;8184;60.256;18.694;2023-09-12T15:21:34;21.70;99.90
16158;DHT22;8184;60.256;18.694;2023-09-12T15:24:03;21.50;99.90
16158;DHT22;8184;60.256;18.694;2023-09-12T15:26:31;21.40;99.90
16158;DHT22;8184;60.256;18.694;2023-09-12T15:28:59;21.40;99.90
16158;DHT22;8184;60.256;18.694;2023-09-12T15:31:30;21.20;99.90
16158;DHT22;8184;60.256;18.694;2023-09-12T15:34:04;21.20;99.90
16158;DHT22;8184;60.256;18.694;2023-09-12T15:36:41;21.20;99.90
16158;DHT22;8184;60.256;18.694;2023-09-12T15:39:10;21.10;99.90
16158;DHT22;8184;60.256;18.694;2023-09-12T15:41:39;21.30;99.90
16158;DHT22;8184;60.256;18.694;2023-09-12T15:44:07;21.10;99.90
16158;DHT22;8184;60.256;18.694;2023-09-12T15:46:42;21.00;99.90
16158;DHT22;8184;60.256;18.694;2023-09-12T15:49:10;20.90;99.90
16158;DHT22;8184;60.256;18.694;2023-09-12T15:51:40;21.00;99.90
16158;DHT22;8184;60.256;18.694;2023-09-12T15:54:12;20.90;99.90